Latest Weather Observations for Trangie

IDN60801

Issued at 1:33 pm EST Wednesday 29 June 2016 (issued every 30 minutes, with the page automatically refreshed every 10 minutes)

About weather observations | Map of weather stations | Latest weather observations for NSW | Other Formats
Station Details ID: 051049 Name: TRANGIE RESEARCH STATION AWS Lat: -31.99 Lon: 147.95 Height: 215.0 m
Data from the previous 72 hours. | See also: Recent months at Trangie
Date/Time
EST
Temp
°C
App
Temp
°C
Dew
Point
°C
Rel
Hum
%
Delta-T
°C
Wind Press
QNH
hPa
Press
MSL
hPa
Rain since
9am
mm
Dir  Spd
km/h
Gust
km/h
Spd
kts
Gust
kts
29/01:30pm 13.3 10.9 6.9 65 3.1 SE 9 15 5 8 1026.7 1027.0 0.0
29/01:00pm 12.7 10.1 6.3 65 3.1 SE 9 13 5 7 1027.0 1027.3 0.0
29/12:30pm 12.7 10.0 7.4 70 2.6 SSE 11 20 6 11 1027.4 1027.7 0.0
29/12:00pm 12.0 9.1 6.7 70 2.5 S 11 15 6 8 1028.1 1028.3 0.0
29/11:30am 11.7 9.3 7.0 73 2.3 SSE 9 11 5 6 1028.7 1028.9 0.0
29/11:00am 10.7 8.3 6.8 77 1.9 S 9 15 5 8 1029.2 1029.4 0.0
29/10:30am 9.9 7.9 7.3 84 1.2 S 7 9 4 5 1029.5 1029.7 0.0
29/10:00am 9.1 6.9 7.9 92 0.6 SE 9 15 5 8 1029.5 1029.7 0.0
29/09:30am 7.4 5.0 6.8 96 0.3 SSE 9 13 5 7 1029.4 1029.6 0.0
29/09:00am 6.0 3.9 5.6 97 0.2 SE 6 9 3 5 1029.5 1029.7 0.0
29/08:30am 4.6 2.2 4.2 97 0.2 SE 6 9 3 5 1029.5 1029.7 0.0
29/08:00am 1.2 -2.0 0.6 96 0.2 SSW 7 11 4 6 1029.4 1029.6 0.0
29/07:30am 0.7 -2.6 0.1 96 0.2 S 7 9 4 5 1029.0 1029.2 0.0
29/07:00am 0.4 -1.6 -0.2 96 0.2 CALM 0 7 0 4 1028.9 1029.1 0.0
29/06:30am 0.7 -1.3 0.1 96 0.2 CALM 0 0 0 0 1028.6 1028.8 0.0
29/06:00am 0.8 -1.2 0.2 96 0.2 CALM 0 0 0 0 1028.6 1028.8 0.0
29/05:30am 0.6 -1.4 0.0 96 0.2 CALM 0 6 0 3 1028.5 1028.7 0.0
29/05:00am 1.1 -0.8 0.4 95 0.3 CALM 0 0 0 0 1028.3 1028.5 0.0
29/04:30am 2.6 0.9 2.0 96 0.2 CALM 0 0 0 0 1028.3 1028.5 0.0
29/04:00am 2.7 1.0 2.1 96 0.2 CALM 0 6 0 3 1028.5 1028.7 0.0
29/03:30am 2.1 -1.4 1.5 96 0.2 SSE 9 11 5 6 1028.7 1028.9 0.0
29/03:00am 2.2 -0.9 1.5 95 0.3 SSE 7 7 4 4 1028.8 1029.0 0.0
29/02:30am 2.8 0.0 2.1 95 0.3 SSE 6 7 3 4 1028.8 1029.0 0.0
29/02:00am 2.5 0.4 1.8 95 0.3 SSE 2 6 1 3 1029.1 1029.3 0.0
29/01:30am 2.3 -0.6 1.4 94 0.3 SSE 6 7 3 4 1029.0 1029.2 0.0
29/01:00am 2.3 0.1 1.3 93 0.4 SSE 2 7 1 4 1029.3 1029.5 0.0
29/12:30am 2.9 1.2 1.9 93 0.4 CALM 0 0 0 0 1029.3 1029.5 0.0
29/12:00am 3.9 2.4 2.9 93 0.4 CALM 0 2 0 1 1029.2 1029.4 0.0
 
Date/Time
EST
Temp
°C
App
Temp
°C
Dew
Point
°C
Rel
Hum
%
Delta-T
°C
Wind Press
QNH
hPa
Press
MSL
hPa
Rain since
9am
mm
Dir  Spd
km/h
Gust
km/h
Spd
kts
Gust
kts
28/11:30pm 3.9 1.0 2.7 92 0.5 SSE 7 9 4 5 1029.2 1029.4 0.0
28/11:00pm 4.0 1.3 2.8 92 0.5 S 6 9 3 5 1029.5 1029.7 0.0
28/10:30pm 4.3 1.1 3.0 91 0.5 S 9 11 5 6 1029.6 1029.8 0.0
28/10:00pm 3.9 0.5 2.1 88 0.7 SSW 9 11 5 6 1029.6 1029.8 0.0
28/09:30pm 5.2 2.0 3.2 87 0.8 SSW 9 13 5 7 1029.7 1029.9 0.0
28/09:00pm 4.7 1.4 2.2 84 1.0 SSW 9 11 5 6 1029.6 1029.8 0.0
28/08:30pm 6.1 3.0 3.8 85 1.0 SSW 9 11 5 6 1029.5 1029.7 0.0
28/08:00pm 6.8 4.2 4.1 83 1.2 SSW 7 9 4 5 1029.2 1029.4 0.0
28/07:30pm 7.4 4.5 4.5 82 1.3 SSW 9 11 5 6 1028.9 1029.1 0.0
28/07:00pm 7.6 4.7 4.7 82 1.3 SSW 9 9 5 5 1028.8 1029.0 0.0
28/06:30pm 7.2 4.2 4.0 80 1.4 SSW 9 11 5 6 1028.4 1028.6 0.0
28/06:00pm 8.8 5.9 4.4 74 1.9 SSW 9 11 5 6 1028.0 1028.2 0.0
28/05:30pm 9.6 7.1 5.0 73 2.1 SSW 7 11 4 6 1027.7 1028.0 0.0
28/05:00pm 11.3 8.5 5.2 66 2.8 S 9 11 5 6 1027.4 1027.7 0.0
28/04:30pm 12.9 9.1 5.8 62 3.4 SW 15 20 8 11 1027.0 1027.3 0.0
28/04:00pm 11.7 9.4 5.6 66 2.8 S 7 11 4 6 1027.0 1027.3 0.0
28/03:30pm 12.2 9.0 5.1 62 3.3 S 11 17 6 9 1026.9 1027.2 0.0
28/03:00pm 12.7 8.5 5.8 63 3.3 SSW 17 26 9 14 1026.5 1026.8 0.0
28/02:30pm 12.5 8.8 6.3 66 3.0 SW 15 22 8 12 1026.6 1026.9 0.0
28/02:00pm 12.1 8.2 5.3 63 3.2 SSW 15 20 8 11 1026.6 1026.9 0.0
28/01:30pm 12.3 9.3 5.9 65 3.0 SSW 11 17 6 9 1026.6 1026.9 0.0
28/01:00pm 13.5 10.0 7.3 66 3.0 SSW 15 20 8 11 1026.7 1027.0 0.0
28/12:30pm 12.0 7.7 5.2 63 3.2 SSW 17 24 9 13 1026.8 1027.1 0.0
28/12:00pm 12.3 9.0 6.6 68 2.7 SW 13 19 7 10 1027.2 1027.5 0.0
28/11:30am 11.7 8.4 6.6 71 2.4 SSW 13 20 7 11 1027.4 1027.7 0.0
28/11:00am 10.8 6.7 6.2 73 2.2 SSW 17 24 9 13 1027.7 1028.0 0.0
28/10:30am 10.2 6.4 6.0 75 2.0 SSW 15 20 8 11 1027.9 1028.1 0.0
28/10:00am 9.6 5.8 5.8 77 1.7 SW 15 20 8 11 1027.9 1028.1 0.0
28/09:30am 8.3 4.7 4.9 79 1.5 SSW 13 19 7 10 1027.6 1027.9 0.0
28/09:00am 7.0 4.5 4.5 84 1.1 S 7 11 4 6 1027.3 1027.6 0.4
28/08:30am 5.8 4.1 4.1 89 0.7 SSE 2 6 1 3 1027.1 1027.4 0.4
28/08:00am 3.9 2.4 2.9 93 0.4 CALM 0 0 0 0 1026.6 1026.9 0.4
28/07:30am 2.7 0.6 1.4 91 0.5 SE 2 7 1 4 1026.2 1026.5 0.4
28/07:00am 3.7 0.7 2.2 90 0.6 S 7 9 4 5 1025.7 1025.9 0.4
28/06:30am 3.4 0.0 2.1 91 0.5 SSW 9 13 5 7 1025.7 1025.9 0.4
28/06:00am 4.1 0.4 2.6 90 0.6 WSW 11 15 6 8 1025.0 1025.2 0.4
28/05:30am 5.0 1.5 3.7 91 0.6 WSW 11 13 6 7 1024.7 1024.9 0.4
28/05:00am 4.7 1.6 3.4 91 0.5 WSW 9 11 5 6 1024.4 1024.6 0.4
28/04:30am 4.5 1.3 3.2 91 0.5 W 9 13 5 7 1024.4 1024.6 0.4
28/04:00am 4.8 1.6 3.3 90 0.6 W 9 13 5 7 1024.4 1024.6 0.4
28/03:30am 5.2 1.7 3.7 90 0.6 WSW 11 13 6 7 1024.4 1024.6 0.4
28/03:00am 5.6 2.2 3.9 89 0.7 WSW 11 13 6 7 1024.3 1024.5 0.4
28/02:30am 5.8 2.5 4.3 90 0.6 W 11 15 6 8 1024.4 1024.6 0.4
28/02:00am 5.5 2.1 3.8 89 0.7 WSW 11 15 6 8 1024.2 1024.4 0.4
28/01:30am 6.4 2.7 4.2 86 1.0 W 13 17 7 9 1024.0 1024.2 0.4
28/01:00am 7.3 3.7 5.1 86 1.0 WSW 13 17 7 9 1024.0 1024.2 0.4
28/12:30am 7.3 3.7 5.0 85 1.0 WSW 13 15 7 8 1023.8 1024.0 0.4
28/12:00am 7.3 4.1 5.0 85 1.0 WSW 11 15 6 8 1023.8 1024.0 0.4
 
Date/Time
EST
Temp
°C
App
Temp
°C
Dew
Point
°C
Rel
Hum
%
Delta-T
°C
Wind Press
QNH
hPa
Press
MSL
hPa
Rain since
9am
mm
Dir  Spd
km/h
Gust
km/h
Spd
kts
Gust
kts
27/11:30pm 7.3 4.0 4.8 84 1.1 WSW 11 13 6 7 1023.8 1024.0 0.4
27/11:00pm 7.4 3.7 4.7 83 1.2 WSW 13 19 7 10 1023.7 1023.9 0.4
27/10:30pm 7.3 4.1 5.1 86 1.0 WSW 11 15 6 8 1023.5 1023.7 0.4
27/10:00pm 7.1 3.9 5.3 88 0.8 W 11 13 6 7 1023.5 1023.7 0.4
27/09:30pm 7.1 3.9 5.1 87 0.9 WSW 11 15 6 8 1023.3 1023.5 0.4
27/09:00pm 7.1 3.9 5.1 87 0.9 WSW 11 13 6 7 1023.1 1023.3 0.4
27/08:30pm 7.1 4.3 5.3 88 0.8 WSW 9 13 5 7 1023.1 1023.3 0.4
27/08:00pm 6.9 4.5 5.2 89 0.8 W 7 9 4 5 1022.7 1023.0 0.4
27/07:30pm 6.8 4.3 5.0 88 0.8 WSW 7 7 4 4 1022.6 1022.9 0.4
27/07:00pm 6.7 4.2 4.5 86 1.0 SW 7 7 4 4 1022.4 1022.7 0.4
27/06:30pm 7.0 4.5 4.5 84 1.1 SSE 7 9 4 5 1022.1 1022.4 0.4
27/06:00pm 7.0 4.0 4.1 82 1.3 SSW 9 13 5 7 1021.6 1021.8 0.4
27/05:30pm 7.4 3.3 4.2 80 1.4 SW 15 20 8 11 1021.2 1021.4 0.4
27/05:00pm 7.4 3.3 4.2 80 1.4 WSW 15 20 8 11 1020.9 1021.1 0.4
27/04:30pm 7.7 3.9 3.9 77 1.7 SSW 13 19 7 10 1020.4 1020.6 0.4
27/04:00pm 8.7 3.9 5.4 80 1.5 SW 20 26 11 14 1020.0 1020.2 0.4
27/03:30pm 7.8 2.8 4.7 81 1.4 SSW 20 28 11 15 1019.7 1019.9 0.4
27/03:00pm 7.8 2.9 5.1 83 1.2 SW 20 28 11 15 1019.5 1019.7 0.4
27/02:30pm 8.2 3.4 4.6 78 1.6 SW 19 26 10 14 1019.1 1019.3 0.4
27/02:00pm 8.3 3.5 5.6 83 1.2 SW 20 32 11 17 1019.1 1019.3 0.4
27/01:30pm 7.5 2.8 5.3 86 1.0 SSW 19 26 10 14 1019.2 1019.4 0.2
27/01:00pm 7.2 2.5 5.2 87 0.9 SW 19 26 10 14 1019.3 1019.5 0.2
27/12:30pm 6.5 0.7 4.2 85 1.0 SW 24 32 13 17 1019.5 1019.7 0.2
27/12:00pm 7.1 2.7 4.6 84 1.1 SW 17 24 9 13 1019.6 1019.8 0.0
27/11:30am 6.8 2.0 4.5 85 1.0 SW 19 24 10 13 1019.9 1020.1 0.0
27/11:00am 6.5 1.4 4.3 86 1.0 SW 20 28 11 15 1020.0 1020.2 0.0
27/10:30am 6.2 1.1 4.0 86 0.9 SW 20 26 11 14 1020.1 1020.3 0.0
27/10:00am 6.5 2.1 4.8 89 0.7 SW 17 24 9 13 1020.1 1020.3 0.0
27/09:30am 6.2 1.7 4.4 88 0.8 SW 17 22 9 12 1019.9 1020.1 0.0
27/09:00am 6.1 2.1 4.7 91 0.6 SW 15 19 8 10 1019.6 1019.8 2.0
27/08:30am 5.8 2.5 4.6 92 0.5 SW 11 15 6 8 1019.3 1019.5 2.0
27/08:00am 5.5 2.5 4.3 92 0.5 SW 9 13 5 7 1019.1 1019.3 2.0
27/07:30am 5.4 2.1 4.4 93 0.4 SW 11 15 6 8 1018.9 1019.1 2.0
27/07:00am 5.4 4.2 4.4 93 0.4 CALM 0 6 0 3 1018.6 1018.8 2.0
27/06:30am 5.4 3.8 4.5 94 0.4 SW 2 6 1 3 1018.2 1018.3 2.0
27/06:00am 5.3 3.7 4.4 94 0.4 SW 2 7 1 4 1017.9 1018.1 2.0
27/05:30am 5.3 4.0 4.3 93 0.4 CALM 0 0 0 0 1017.5 1017.7 1.8
27/05:00am 5.5 4.3 4.6 94 0.4 CALM 0 6 0 3 1017.3 1017.5 1.8
27/04:30am 5.6 3.1 4.6 93 0.4 WSW 7 11 4 6 1017.1 1017.3 1.8
27/04:00am 5.5 3.0 4.5 93 0.4 SW 7 9 4 5 1017.2 1017.4 1.6
27/03:30am 5.8 2.9 4.9 94 0.4 WSW 9 11 5 6 1017.4 1017.6 1.0
27/03:00am 5.8 4.7 4.9 94 0.4 CALM 0 0 0 0 1017.0 1017.2 0.4
27/02:30am 5.8 3.5 4.9 94 0.4 W 6 7 3 4 1017.4 1017.6 0.2
27/02:00am 5.9 2.7 5.0 94 0.4 WSW 11 15 6 8 1017.1 1017.3 0.2
27/01:30am 5.9 2.7 5.0 94 0.4 WSW 11 15 6 8 1017.0 1017.2 0.0
27/01:00am 5.8 4.3 4.8 93 0.4 N 2 9 1 5 1016.9 1017.1 0.0
27/12:30am 5.9 3.4 4.9 93 0.4 N 7 9 4 5 1017.2 1017.4 0.0
27/12:00am 5.8 1.8 4.9 94 0.4 SW 15 17 8 9 1016.8 1017.0 0.0
 
Date/Time
EST
Temp
°C
App
Temp
°C
Dew
Point
°C
Rel
Hum
%
Delta-T
°C
Wind Press
QNH
hPa
Press
MSL
hPa
Rain since
9am
mm
Dir  Spd
km/h
Gust
km/h
Spd
kts
Gust
kts
26/11:30pm 5.8 4.3 4.8 93 0.4 SSW 2 9 1 5 1017.1 1017.3 0.0
26/11:00pm 5.7 4.5 4.5 92 0.5 CALM 0 7 0 4 1017.6 1017.8 0.0
26/10:30pm 5.9 3.0 4.9 93 0.4 ESE 9 20 5 11 1017.4 1017.6 0.0
26/10:00pm 5.8 4.3 4.8 93 0.4 SSE 2 7 1 4 1017.9 1018.1 0.0
26/09:30pm 5.9 4.7 4.7 92 0.5 CALM 0 0 0 0 1017.9 1018.1 0.0
26/09:00pm 5.8 4.2 4.6 92 0.5 W 2 6 1 3 1018.6 1018.8 0.0
26/08:30pm 5.7 4.4 4.0 89 0.7 CALM 0 0 0 0 1018.5 1018.7 0.0
26/08:00pm 6.0 3.4 4.3 89 0.7 N 7 9 4 5 1018.6 1018.8 0.0
26/07:30pm 5.9 4.2 4.2 89 0.7 NE 2 7 1 4 1018.5 1018.7 0.0
26/07:00pm 6.0 3.4 4.2 88 0.8 SSW 7 11 4 6 1017.9 1018.1 0.0
26/06:30pm 6.2 3.6 4.0 86 0.9 NNE 7 11 4 6 1018.2 1018.3 0.0
26/06:00pm 6.3 3.3 4.3 87 0.9 SSE 9 13 5 7 1017.5 1017.7 0.0
26/05:30pm 6.2 4.9 4.2 87 0.9 CALM 0 0 0 0 1017.6 1017.8 0.0
26/05:00pm 6.6 4.1 3.9 83 1.2 SSW 6 9 3 5 1018.4 1018.6 0.0
26/04:30pm 6.8 3.7 3.8 81 1.3 NW 9 9 5 5 1018.9 1019.1 0.0
26/04:00pm 6.9 4.9 4.2 83 1.2 NW 4 9 2 5 1018.3 1018.5 0.0
26/03:30pm 7.0 4.5 3.8 80 1.4 NNE 6 9 3 5 1018.3 1018.5 0.0
26/03:00pm 7.0 3.9 3.6 79 1.5 SSE 9 13 5 7 1017.7 1017.9 0.0
26/02:30pm 7.3 4.1 3.2 75 1.8 SSW 9 11 5 6 1018.6 1018.8 0.0
26/02:00pm 7.5 4.4 3.4 75 1.8 SSW 9 15 5 8 1018.9 1019.1 0.0

Other Formats:

Comma delimited format used in spreadsheet applications
http://www.bom.gov.au/fwo/IDN60801/IDN60801.95710.axf

JavaScript Object Notation format (JSON) in row-major order
http://www.bom.gov.au/fwo/IDN60801/IDN60801.95710.json